sensor_id;sensor_type;location;lat;lon;timestamp;temperature;humidity
40848;DHT22;26570;50.962;5.340;2023-06-10T00:01:32;20.60;99.90
40848;DHT22;26570;50.962;5.340;2023-06-10T00:04:25;20.40;99.90
40848;DHT22;26570;50.962;5.340;2023-06-10T00:07:24;20.40;99.90
40848;DHT22;26570;50.962;5.340;2023-06-10T00:10:14;20.40;99.90
40848;DHT22;26570;50.962;5.340;2023-06-10T00:13:05;20.40;99.90
40848;DHT22;26570;50.962;5.340;2023-06-10T00:15:58;20.40;99.90
40848;DHT22;26570;50.962;5.340;2023-06-10T00:18:55;20.40;99.90
40848;DHT22;26570;50.962;5.340;2023-06-10T00:22:20;20.50;99.90
40848;DHT22;26570;50.962;5.340;2023-06-10T00:25:16;20.80;99.90
40848;DHT22;26570;50.962;5.340;2023-06-10T00:28:03;20.30;99.90
40848;DHT22;26570;50.962;5.340;2023-06-10T00:31:02;20.30;99.90
40848;DHT22;26570;50.962;5.340;2023-06-10T00:34:00;20.30;99.90
40848;DHT22;26570;50.962;5.340;2023-06-10T00:37:06;20.30;99.90
40848;DHT22;26570;50.962;5.340;2023-06-10T00:40:28;20.20;99.90
40848;DHT22;26570;50.962;5.340;2023-06-10T00:43:24;20.10;99.90
40848;DHT22;26570;50.962;5.340;2023-06-10T00:46:16;20.10;99.90
40848;DHT22;26570;50.962;5.340;2023-06-10T00:49:04;20.20;99.90
40848;DHT22;26570;50.962;5.340;2023-06-10T00:51:54;20.00;99.90
40848;DHT22;26570;50.962;5.340;2023-06-10T00:54:44;20.20;99.90
40848;DHT22;26570;50.962;5.340;2023-06-10T00:57:58;20.10;99.90
40848;DHT22;26570;50.962;5.340;2023-06-10T01:00:57;20.10;99.90
40848;DHT22;26570;50.962;5.340;2023-06-10T01:03:47;20.00;99.90
40848;DHT22;26570;50.962;5.340;2023-06-10T01:07:28;20.00;99.90
40848;DHT22;26570;50.962;5.340;2023-06-10T01:10:32;19.90;99.90
40848;DHT22;26570;50.962;5.340;2023-06-10T01:14:12;19.90;99.90
40848;DHT22;26570;50.962;5.340;2023-06-10T01:17:00;19.70;99.90
40848;DHT22;26570;50.962;5.340;2023-06-10T01:23:22;19.80;99.90
40848;DHT22;26570;50.962;5.340;2023-06-10T01:26:13;19.90;99.90
40848;DHT22;26570;50.962;5.340;2023-06-10T01:29:43;19.80;99.90
40848;DHT22;26570;50.962;5.340;2023-06-10T01:32:38;19.80;99.90
40848;DHT22;26570;50.962;5.340;2023-06-10T01:35:28;19.70;99.90
40848;DHT22;26570;50.962;5.340;2023-06-10T01:38:20;19.80;99.90
40848;DHT22;26570;50.962;5.340;2023-06-10T01:41:18;19.90;99.90
40848;DHT22;26570;50.962;5.340;2023-06-10T01:44:26;19.90;99.90
40848;DHT22;26570;50.962;5.340;2023-06-10T01:47:21;19.70;99.90
40848;DHT22;26570;50.962;5.340;2023-06-10T01:50:39;19.80;99.90
40848;DHT22;26570;50.962;5.340;2023-06-10T01:53:52;19.70;99.90
40848;DHT22;26570;50.962;5.340;2023-06-10T01:57:05;19.70;99.90
40848;DHT22;26570;50.962;5.340;2023-06-10T02:00:00;19.80;99.90
40848;DHT22;26570;50.962;5.340;2023-06-10T02:02:57;19.70;99.90
40848;DHT22;26570;50.962;5.340;2023-06-10T02:05:52;19.70;99.90
40848;DHT22;26570;50.962;5.340;2023-06-10T02:08:48;19.80;99.90
40848;DHT22;26570;50.962;5.340;2023-06-10T02:15:08;19.60;99.90
40848;DHT22;26570;50.962;5.340;2023-06-10T02:18:30;19.40;99.90
40848;DHT22;26570;50.962;5.340;2023-06-10T02:21:17;19.60;99.90
40848;DHT22;26570;50.962;5.340;2023-06-10T02:24:17;19.60;99.90
40848;DHT22;26570;50.962;5.340;2023-06-10T02:27:14;19.50;99.90
40848;DHT22;26570;50.962;5.340;2023-06-10T02:30:42;19.60;99.90
40848;DHT22;26570;50.962;5.340;2023-06-10T02:34:04;19.60;99.90
40848;DHT22;26570;50.962;5.340;2023-06-10T02:36:54;19.50;99.90
40848;DHT22;26570;50.962;5.340;2023-06-10T02:39:44;19.40;99.90
40848;DHT22;26570;50.962;5.340;2023-06-10T02:42:38;19.30;99.90
40848;DHT22;26570;50.962;5.340;2023-06-10T02:45:51;19.20;99.90
40848;DHT22;26570;50.962;5.340;2023-06-10T02:48:45;19.20;99.90
40848;DHT22;26570;50.962;5.340;2023-06-10T02:52:03;19.10;99.90
40848;DHT22;26570;50.962;5.340;2023-06-10T02:55:27;19.10;99.90
40848;DHT22;26570;50.962;5.340;2023-06-10T02:58:17;19.10;99.90
40848;DHT22;26570;50.962;5.340;2023-06-10T03:01:15;19.10;99.90
40848;DHT22;26570;50.962;5.340;2023-06-10T03:04:29;19.00;99.90
40848;DHT22;26570;50.962;5.340;2023-06-10T03:07:16;19.00;99.90
40848;DHT22;26570;50.962;5.340;2023-06-10T03:10:15;18.90;99.90
40848;DHT22;26570;50.962;5.340;2023-06-10T03:13:40;18.90;99.90
40848;DHT22;26570;50.962;5.340;2023-06-10T03:16:27;18.90;99.90
40848;DHT22;26570;50.962;5.340;2023-06-10T03:19:38;18.80;99.90
40848;DHT22;26570;50.962;5.340;2023-06-10T03:23:04;18.90;99.90
40848;DHT22;26570;50.962;5.340;2023-06-10T03:26:01;18.90;99.90
40848;DHT22;26570;50.962;5.340;2023-06-10T03:29:09;18.80;99.90
40848;DHT22;26570;50.962;5.340;2023-06-10T03:32:24;18.70;99.90
40848;DHT22;26570;50.962;5.340;2023-06-10T03:35:19;18.90;99.90
40848;DHT22;26570;50.962;5.340;2023-06-10T03:38:36;18.80;99.90
40848;DHT22;26570;50.962;5.340;2023-06-10T03:41:35;18.70;99.90
40848;DHT22;26570;50.962;5.340;2023-06-10T03:44:25;18.70;99.90
40848;DHT22;26570;50.962;5.340;2023-06-10T03:47:20;18.80;99.90
40848;DHT22;26570;50.962;5.340;2023-06-10T03:50:40;18.90;99.90
40848;DHT22;26570;50.962;5.340;2023-06-10T03:53:38;18.90;99.90
40848;DHT22;26570;50.962;5.340;2023-06-10T03:56:55;18.90;99.90
40848;DHT22;26570;50.962;5.340;2023-06-10T04:00:15;18.80;99.90
40848;DHT22;26570;50.962;5.340;2023-06-10T04:03:32;19.00;99.90
40848;DHT22;26570;50.962;5.340;2023-06-10T04:06:25;18.90;99.90
40848;DHT22;26570;50.962;5.340;2023-06-10T04:09:50;18.90;99.90
40848;DHT22;26570;50.962;5.340;2023-06-10T04:12:46;18.90;99.90
40848;DHT22;26570;50.962;5.340;2023-06-10T04:15:38;19.10;99.90
40848;DHT22;26570;50.962;5.340;2023-06-10T04:18:59;18.80;99.90
40848;DHT22;26570;50.962;5.340;2023-06-10T04:22:00;18.80;99.90
40848;DHT22;26570;50.962;5.340;2023-06-10T04:24:59;18.90;99.90
40848;DHT22;26570;50.962;5.340;2023-06-10T04:27:51;18.80;99.90
40848;DHT22;26570;50.962;5.340;2023-06-10T04:30:45;18.80;99.90
40848;DHT22;26570;50.962;5.340;2023-06-10T04:33:35;19.10;99.90
40848;DHT22;26570;50.962;5.340;2023-06-10T04:36:32;19.00;99.90
40848;DHT22;26570;50.962;5.340;2023-06-10T04:39:47;19.10;99.90
40848;DHT22;26570;50.962;5.340;2023-06-10T04:43:05;19.00;99.90
40848;DHT22;26570;50.962;5.340;2023-06-10T04:46:26;19.30;99.90
40848;DHT22;26570;50.962;5.340;2023-06-10T04:52:27;19.40;99.90
40848;DHT22;26570;50.962;5.340;2023-06-10T04:55:39;19.50;99.90
40848;DHT22;26570;50.962;5.340;2023-06-10T04:58:49;19.80;99.90
40848;DHT22;26570;50.962;5.340;2023-06-10T05:01:46;19.50;99.90
40848;DHT22;26570;50.962;5.340;2023-06-10T05:04:53;19.70;99.90
40848;DHT22;26570;50.962;5.340;2023-06-10T05:07:45;19.80;99.90
40848;DHT22;26570;50.962;5.340;2023-06-10T05:10:36;19.80;99.90
40848;DHT22;26570;50.962;5.340;2023-06-10T05:13:42;19.70;99.90
40848;DHT22;26570;50.962;5.340;2023-06-10T05:17:01;20.00;99.90
40848;DHT22;26570;50.962;5.340;2023-06-10T05:19:59;20.20;99.90
40848;DHT22;26570;50.962;5.340;2023-06-10T05:22:57;20.10;99.90
40848;DHT22;26570;50.962;5.340;2023-06-10T05:25:48;20.40;99.90
40848;DHT22;26570;50.962;5.340;2023-06-10T05:32:00;20.50;99.90
40848;DHT22;26570;50.962;5.340;2023-06-10T05:35:31;20.60;99.90
40848;DHT22;26570;50.962;5.340;2023-06-10T05:38:36;20.80;99.90
40848;DHT22;26570;50.962;5.340;2023-06-10T05:48:54;21.10;99.90
40848;DHT22;26570;50.962;5.340;2023-06-10T05:52:25;21.30;99.90
40848;DHT22;26570;50.962;5.340;2023-06-10T05:56:00;21.40;99.90
40848;DHT22;26570;50.962;5.340;2023-06-10T06:07:46;22.60;99.90
40848;DHT22;26570;50.962;5.340;2023-06-10T06:43:09;32.80;83.70
40848;DHT22;26570;50.962;5.340;2023-06-10T06:46:25;33.50;83.80
40848;DHT22;26570;50.962;5.340;2023-06-10T06:49:53;34.20;81.80
40848;DHT22;26570;50.962;5.340;2023-06-10T06:53:51;34.10;80.00
40848;DHT22;26570;50.962;5.340;2023-06-10T07:05:23;35.30;77.40
40848;DHT22;26570;50.962;5.340;2023-06-10T07:08:57;35.90;76.50
40848;DHT22;26570;50.962;5.340;2023-06-10T07:15:54;35.90;74.10
40848;DHT22;26570;50.962;5.340;2023-06-10T07:18:58;36.30;73.80
40848;DHT22;26570;50.962;5.340;2023-06-10T07:22:33;36.50;73.40
40848;DHT22;26570;50.962;5.340;2023-06-10T07:25:53;36.30;72.60
40848;DHT22;26570;50.962;5.340;2023-06-10T07:29:21;36.30;72.30
40848;DHT22;26570;50.962;5.340;2023-06-10T07:32:36;36.50;71.60
40848;DHT22;26570;50.962;5.340;2023-06-10T07:39:22;37.20;70.80
40848;DHT22;26570;50.962;5.340;2023-06-10T07:42:49;37.00;71.20
40848;DHT22;26570;50.962;5.340;2023-06-10T07:46:31;37.10;70.40
40848;DHT22;26570;50.962;5.340;2023-06-10T07:49:51;37.50;70.20
40848;DHT22;26570;50.962;5.340;2023-06-10T07:52:41;36.80;69.80
40848;DHT22;26570;50.962;5.340;2023-06-10T07:55:32;37.60;70.00
40848;DHT22;26570;50.962;5.340;2023-06-10T08:02:42;37.40;69.90
40848;DHT22;26570;50.962;5.340;2023-06-10T08:09:31;37.20;68.70
40848;DHT22;26570;50.962;5.340;2023-06-10T08:12:45;37.20;68.50
40848;DHT22;26570;50.962;5.340;2023-06-10T08:16:11;37.40;68.60
40848;DHT22;26570;50.962;5.340;2023-06-10T08:19:28;37.30;68.70
40848;DHT22;26570;50.962;5.340;2023-06-10T08:22:42;37.40;69.00
40848;DHT22;26570;50.962;5.340;2023-06-10T08:26:17;37.90;68.60
40848;DHT22;26570;50.962;5.340;2023-06-10T08:29:05;37.50;67.80
40848;DHT22;26570;50.962;5.340;2023-06-10T08:31:55;37.40;67.50
40848;DHT22;26570;50.962;5.340;2023-06-10T08:38:54;37.20;67.00
40848;DHT22;26570;50.962;5.340;2023-06-10T08:41:45;37.10;67.70
40848;DHT22;26570;50.962;5.340;2023-06-10T08:45:04;37.30;68.60
40848;DHT22;26570;50.962;5.340;2023-06-10T08:48:25;37.30;67.70
40848;DHT22;26570;50.962;5.340;2023-06-10T08:51:35;37.70;69.40
40848;DHT22;26570;50.962;5.340;2023-06-10T08:58:30;36.90;66.40
40848;DHT22;26570;50.962;5.340;2023-06-10T09:02:00;36.90;67.00
40848;DHT22;26570;50.962;5.340;2023-06-10T09:05:22;37.20;67.10
40848;DHT22;26570;50.962;5.340;2023-06-10T09:08:45;37.30;66.80
40848;DHT22;26570;50.962;5.340;2023-06-10T09:12:24;37.30;67.30
40848;DHT22;26570;50.962;5.340;2023-06-10T09:15:51;37.50;67.10
40848;DHT22;26570;50.962;5.340;2023-06-10T09:23:11;37.30;66.70
40848;DHT22;26570;50.962;5.340;2023-06-10T09:26:09;37.30;66.80
40848;DHT22;26570;50.962;5.340;2023-06-10T09:29:53;37.10;65.90
40848;DHT22;26570;50.962;5.340;2023-06-10T09:33:15;36.80;66.40
40848;DHT22;26570;50.962;5.340;2023-06-10T09:36:33;36.60;66.10
40848;DHT22;26570;50.962;5.340;2023-06-10T09:39:42;36.60;67.00
40848;DHT22;26570;50.962;5.340;2023-06-10T09:46:42;37.00;66.70
40848;DHT22;26570;50.962;5.340;2023-06-10T09:50:23;37.30;66.50
40848;DHT22;26570;50.962;5.340;2023-06-10T09:53:55;36.90;65.60
40848;DHT22;26570;50.962;5.340;2023-06-10T09:57:31;36.30;64.00
40848;DHT22;26570;50.962;5.340;2023-06-10T10:00:58;36.50;63.30
40848;DHT22;26570;50.962;5.340;2023-06-10T10:04:36;36.30;63.10
40848;DHT22;26570;50.962;5.340;2023-06-10T10:11:37;35.70;64.60
40848;DHT22;26570;50.962;5.340;2023-06-10T10:15:02;35.70;64.30
40848;DHT22;26570;50.962;5.340;2023-06-10T10:18:19;35.70;65.20
40848;DHT22;26570;50.962;5.340;2023-06-10T10:21:49;36.00;64.80
40848;DHT22;26570;50.962;5.340;2023-06-10T10:25:37;36.00;63.90
40848;DHT22;26570;50.962;5.340;2023-06-10T10:29:10;36.00;65.10
40848;DHT22;26570;50.962;5.340;2023-06-10T10:36:43;36.30;63.80
40848;DHT22;26570;50.962;5.340;2023-06-10T10:40:22;36.30;63.90
40848;DHT22;26570;50.962;5.340;2023-06-10T10:43:59;36.10;63.50
40848;DHT22;26570;50.962;5.340;2023-06-10T10:55:33;36.00;63.50
40848;DHT22;26570;50.962;5.340;2023-06-10T10:59:12;35.80;63.10
40848;DHT22;26570;50.962;5.340;2023-06-10T11:02:47;36.10;63.60
40848;DHT22;26570;50.962;5.340;2023-06-10T11:06:31;36.20;62.40
40848;DHT22;26570;50.962;5.340;2023-06-10T11:09:59;35.90;63.20
40848;DHT22;26570;50.962;5.340;2023-06-10T11:13:28;35.60;62.80
40848;DHT22;26570;50.962;5.340;2023-06-10T11:28:19;36.40;63.30
40848;DHT22;26570;50.962;5.340;2023-06-10T11:39:26;36.10;60.50
40848;DHT22;26570;50.962;5.340;2023-06-10T11:43:20;36.40;59.90
40848;DHT22;26570;50.962;5.340;2023-06-10T11:46:56;36.10;60.50
40848;DHT22;26570;50.962;5.340;2023-06-10T11:50:38;36.10;61.60
40848;DHT22;26570;50.962;5.340;2023-06-10T11:57:45;36.00;60.00
40848;DHT22;26570;50.962;5.340;2023-06-10T12:01:25;35.90;60.00
40848;DHT22;26570;50.962;5.340;2023-06-10T12:04:34;36.60;61.40
40848;DHT22;26570;50.962;5.340;2023-06-10T12:08:12;36.60;61.00
40848;DHT22;26570;50.962;5.340;2023-06-10T12:11:25;36.40;59.40
40848;DHT22;26570;50.962;5.340;2023-06-10T12:18:51;36.10;60.70
40848;DHT22;26570;50.962;5.340;2023-06-10T12:22:22;36.30;59.80
40848;DHT22;26570;50.962;5.340;2023-06-10T12:26:07;36.40;59.70
40848;DHT22;26570;50.962;5.340;2023-06-10T12:29:50;36.40;60.10
40848;DHT22;26570;50.962;5.340;2023-06-10T12:37:12;36.10;59.80
40848;DHT22;26570;50.962;5.340;2023-06-10T12:41:22;35.80;57.00
40848;DHT22;26570;50.962;5.340;2023-06-10T12:45:03;35.60;59.00
40848;DHT22;26570;50.962;5.340;2023-06-10T12:52:53;36.40;58.60
40848;DHT22;26570;50.962;5.340;2023-06-10T13:03:36;36.30;56.60
40848;DHT22;26570;50.962;5.340;2023-06-10T13:06:36;36.20;56.90
40848;DHT22;26570;50.962;5.340;2023-06-10T13:12:12;36.40;56.40
40848;DHT22;26570;50.962;5.340;2023-06-10T13:15:42;36.30;57.70
40848;DHT22;26570;50.962;5.340;2023-06-10T13:18:33;36.50;57.60
40848;DHT22;26570;50.962;5.340;2023-06-10T13:22:01;36.60;59.30
40848;DHT22;26570;50.962;5.340;2023-06-10T13:25:40;36.70;57.40
40848;DHT22;26570;50.962;5.340;2023-06-10T13:36:41;37.20;57.00
40848;DHT22;26570;50.962;5.340;2023-06-10T13:39:48;37.10;58.10
40848;DHT22;26570;50.962;5.340;2023-06-10T13:43:02;37.20;59.50
40848;DHT22;26570;50.962;5.340;2023-06-10T13:46:35;37.20;58.00
40848;DHT22;26570;50.962;5.340;2023-06-10T13:50:13;37.00;58.30
40848;DHT22;26570;50.962;5.340;2023-06-10T13:53:39;37.10;58.40
40848;DHT22;26570;50.962;5.340;2023-06-10T13:57:08;37.30;57.90
40848;DHT22;26570;50.962;5.340;2023-06-10T13:59:57;37.30;57.10
40848;DHT22;26570;50.962;5.340;2023-06-10T14:03:29;37.30;57.60
40848;DHT22;26570;50.962;5.340;2023-06-10T14:06:26;37.20;55.80
40848;DHT22;26570;50.962;5.340;2023-06-10T14:09:46;37.00;55.00
40848;DHT22;26570;50.962;5.340;2023-06-10T14:13:12;37.20;56.40
40848;DHT22;26570;50.962;5.340;2023-06-10T14:20:25;36.90;57.80
40848;DHT22;26570;50.962;5.340;2023-06-10T14:23:54;36.90;58.50
40848;DHT22;26570;50.962;5.340;2023-06-10T14:26:54;37.00;56.60
40848;DHT22;26570;50.962;5.340;2023-06-10T14:30:18;37.20;56.60
40848;DHT22;26570;50.962;5.340;2023-06-10T14:37:00;37.00;57.10
40848;DHT22;26570;50.962;5.340;2023-06-10T14:47:38;36.50;56.50
40848;DHT22;26570;50.962;5.340;2023-06-10T14:50:41;36.80;56.40
40848;DHT22;26570;50.962;5.340;2023-06-10T14:54:29;36.90;55.50
40848;DHT22;26570;50.962;5.340;2023-06-10T15:01:13;36.70;57.50
40848;DHT22;26570;50.962;5.340;2023-06-10T15:04:48;36.60;56.20
40848;DHT22;26570;50.962;5.340;2023-06-10T15:08:02;36.60;58.30
40848;DHT22;26570;50.962;5.340;2023-06-10T15:18:58;36.00;59.80
40848;DHT22;26570;50.962;5.340;2023-06-10T15:22:23;36.10;60.10
40848;DHT22;26570;50.962;5.340;2023-06-10T15:25:31;36.00;60.20
40848;DHT22;26570;50.962;5.340;2023-06-10T15:36:19;35.40;60.40
40848;DHT22;26570;50.962;5.340;2023-06-10T15:39:28;35.60;60.20
40848;DHT22;26570;50.962;5.340;2023-06-10T15:42:34;35.40;60.50
40848;DHT22;26570;50.962;5.340;2023-06-10T15:45:47;35.20;59.00
40848;DHT22;26570;50.962;5.340;2023-06-10T15:56:47;35.10;60.00
40848;DHT22;26570;50.962;5.340;2023-06-10T16:00:03;35.00;60.10
40848;DHT22;26570;50.962;5.340;2023-06-10T16:02:53;35.00;60.90
40848;DHT22;26570;50.962;5.340;2023-06-10T16:06:34;35.10;61.30
40848;DHT22;26570;50.962;5.340;2023-06-10T16:10:00;35.30;61.60
40848;DHT22;26570;50.962;5.340;2023-06-10T16:13:40;35.30;60.40
40848;DHT22;26570;50.962;5.340;2023-06-10T16:19:48;35.10;60.80
40848;DHT22;26570;50.962;5.340;2023-06-10T16:26:56;35.30;59.40
40848;DHT22;26570;50.962;5.340;2023-06-10T16:30:51;35.00;59.60
40848;DHT22;26570;50.962;5.340;2023-06-10T16:33:54;34.90;60.40
40848;DHT22;26570;50.962;5.340;2023-06-10T16:37:20;34.90;60.80
40848;DHT22;26570;50.962;5.340;2023-06-10T16:44:05;35.20;61.10
40848;DHT22;26570;50.962;5.340;2023-06-10T16:47:21;35.10;60.50
40848;DHT22;26570;50.962;5.340;2023-06-10T16:50:42;35.20;61.30
40848;DHT22;26570;50.962;5.340;2023-06-10T16:54:10;35.20;61.50
40848;DHT22;26570;50.962;5.340;2023-06-10T16:57:21;34.90;61.50
40848;DHT22;26570;50.962;5.340;2023-06-10T17:04:09;35.10;61.90
40848;DHT22;26570;50.962;5.340;2023-06-10T17:07:48;34.90;62.60
40848;DHT22;26570;50.962;5.340;2023-06-10T17:11:26;34.70;62.70
40848;DHT22;26570;50.962;5.340;2023-06-10T17:15:07;34.50;62.20
40848;DHT22;26570;50.962;5.340;2023-06-10T17:25:29;34.30;62.90
40848;DHT22;26570;50.962;5.340;2023-06-10T17:28:46;34.50;63.50
40848;DHT22;26570;50.962;5.340;2023-06-10T17:31:44;34.20;62.90
40848;DHT22;26570;50.962;5.340;2023-06-10T17:35:28;33.80;62.50
40848;DHT22;26570;50.962;5.340;2023-06-10T17:38:29;33.80;62.90
40848;DHT22;26570;50.962;5.340;2023-06-10T17:42:06;33.70;63.10
40848;DHT22;26570;50.962;5.340;2023-06-10T17:45:43;33.80;63.00
40848;DHT22;26570;50.962;5.340;2023-06-10T17:56:19;33.30;63.00
40848;DHT22;26570;50.962;5.340;2023-06-10T17:59:14;33.10;63.30
40848;DHT22;26570;50.962;5.340;2023-06-10T18:02:31;33.00;63.90
40848;DHT22;26570;50.962;5.340;2023-06-10T18:09:18;32.80;64.70
40848;DHT22;26570;50.962;5.340;2023-06-10T18:12:22;32.70;64.70
40848;DHT22;26570;50.962;5.340;2023-06-10T18:15:33;32.60;65.50
40848;DHT22;26570;50.962;5.340;2023-06-10T18:18:31;32.50;67.60
40848;DHT22;26570;50.962;5.340;2023-06-10T18:25:58;32.30;65.30
40848;DHT22;26570;50.962;5.340;2023-06-10T18:28:48;32.20;65.70
40848;DHT22;26570;50.962;5.340;2023-06-10T18:31:45;32.00;66.10
40848;DHT22;26570;50.962;5.340;2023-06-10T18:34:54;31.90;65.90
40848;DHT22;26570;50.962;5.340;2023-06-10T18:38:36;31.80;66.10
40848;DHT22;26570;50.962;5.340;2023-06-10T18:41:55;31.80;66.60
40848;DHT22;26570;50.962;5.340;2023-06-10T18:45:13;31.90;66.50
40848;DHT22;26570;50.962;5.340;2023-06-10T18:51:53;31.40;68.20
40848;DHT22;26570;50.962;5.340;2023-06-10T18:54:48;31.30;69.50
40848;DHT22;26570;50.962;5.340;2023-06-10T18:58:03;31.10;70.10
40848;DHT22;26570;50.962;5.340;2023-06-10T19:00:56;31.10;68.80
40848;DHT22;26570;50.962;5.340;2023-06-10T19:04:14;30.80;69.80
40848;DHT22;26570;50.962;5.340;2023-06-10T19:07:10;30.70;69.70
40848;DHT22;26570;50.962;5.340;2023-06-10T19:10:18;30.50;69.80
40848;DHT22;26570;50.962;5.340;2023-06-10T19:16:51;29.80;70.50
40848;DHT22;26570;50.962;5.340;2023-06-10T19:20:04;29.80;70.40
40848;DHT22;26570;50.962;5.340;2023-06-10T19:23:17;29.50;70.70
40848;DHT22;26570;50.962;5.340;2023-06-10T19:26:44;29.30;71.10
40848;DHT22;26570;50.962;5.340;2023-06-10T19:29:46;29.00;71.90
40848;DHT22;26570;50.962;5.340;2023-06-10T19:33:20;28.70;72.10
40848;DHT22;26570;50.962;5.340;2023-06-10T19:36:13;28.50;73.30
40848;DHT22;26570;50.962;5.340;2023-06-10T19:39:48;28.40;74.40
40848;DHT22;26570;50.962;5.340;2023-06-10T19:43:04;28.30;74.80
40848;DHT22;26570;50.962;5.340;2023-06-10T19:46:35;28.00;75.20
40848;DHT22;26570;50.962;5.340;2023-06-10T19:53:08;27.70;76.40
40848;DHT22;26570;50.962;5.340;2023-06-10T19:55:59;27.40;76.90
40848;DHT22;26570;50.962;5.340;2023-06-10T19:58:53;27.20;77.60
40848;DHT22;26570;50.962;5.340;2023-06-10T20:05:28;27.10;78.70
40848;DHT22;26570;50.962;5.340;2023-06-10T20:09:21;26.90;79.20
40848;DHT22;26570;50.962;5.340;2023-06-10T20:13:04;26.80;79.90
40848;DHT22;26570;50.962;5.340;2023-06-10T20:16:17;26.40;80.30
40848;DHT22;26570;50.962;5.340;2023-06-10T20:19:56;26.30;80.90
40848;DHT22;26570;50.962;5.340;2023-06-10T20:23:17;26.20;81.20
40848;DHT22;26570;50.962;5.340;2023-06-10T20:26:50;26.10;81.40
40848;DHT22;26570;50.962;5.340;2023-06-10T20:29:42;25.90;81.50
40848;DHT22;26570;50.962;5.340;2023-06-10T20:33:00;25.80;82.80
40848;DHT22;26570;50.962;5.340;2023-06-10T20:39:34;25.30;84.30
40848;DHT22;26570;50.962;5.340;2023-06-10T20:43:14;25.10;84.50
40848;DHT22;26570;50.962;5.340;2023-06-10T20:46:34;25.10;85.70
40848;DHT22;26570;50.962;5.340;2023-06-10T20:50:01;24.80;86.40
40848;DHT22;26570;50.962;5.340;2023-06-10T20:53:25;24.80;87.40
40848;DHT22;26570;50.962;5.340;2023-06-10T20:57:06;24.60;88.00
40848;DHT22;26570;50.962;5.340;2023-06-10T21:00:57;24.50;89.30
40848;DHT22;26570;50.962;5.340;2023-06-10T21:04:34;24.30;90.20
40848;DHT22;26570;50.962;5.340;2023-06-10T21:07:49;24.00;90.70
40848;DHT22;26570;50.962;5.340;2023-06-10T21:10:49;23.90;90.80
40848;DHT22;26570;50.962;5.340;2023-06-10T21:18:07;23.80;91.50
40848;DHT22;26570;50.962;5.340;2023-06-10T21:21:27;23.70;91.80
40848;DHT22;26570;50.962;5.340;2023-06-10T21:28:34;23.40;92.50
40848;DHT22;26570;50.962;5.340;2023-06-10T21:32:10;23.30;92.90
40848;DHT22;26570;50.962;5.340;2023-06-10T21:35:30;23.30;93.30
40848;DHT22;26570;50.962;5.340;2023-06-10T21:38:29;23.30;93.60
40848;DHT22;26570;50.962;5.340;2023-06-10T21:45:52;23.10;94.30
40848;DHT22;26570;50.962;5.340;2023-06-10T21:52:34;23.00;94.70
40848;DHT22;26570;50.962;5.340;2023-06-10T21:55:59;22.90;95.60
40848;DHT22;26570;50.962;5.340;2023-06-10T21:59:28;23.10;95.90
40848;DHT22;26570;50.962;5.340;2023-06-10T22:02:50;22.80;96.20
40848;DHT22;26570;50.962;5.340;2023-06-10T22:05:57;22.80;96.30
40848;DHT22;26570;50.962;5.340;2023-06-10T22:09:14;23.00;96.80
40848;DHT22;26570;50.962;5.340;2023-06-10T22:12:02;22.80;97.20
40848;DHT22;26570;50.962;5.340;2023-06-10T22:14:53;22.60;97.60
40848;DHT22;26570;50.962;5.340;2023-06-10T22:18:39;22.50;98.00
40848;DHT22;26570;50.962;5.340;2023-06-10T22:21:46;22.50;98.50
40848;DHT22;26570;50.962;5.340;2023-06-10T22:25:06;22.30;98.90
40848;DHT22;26570;50.962;5.340;2023-06-10T22:28:03;22.20;99.30
40848;DHT22;26570;50.962;5.340;2023-06-10T22:31:15;22.20;99.70
40848;DHT22;26570;50.962;5.340;2023-06-10T22:35:05;22.20;99.90
40848;DHT22;26570;50.962;5.340;2023-06-10T22:38:17;22.00;99.90
40848;DHT22;26570;50.962;5.340;2023-06-10T22:41:16;22.00;99.90
40848;DHT22;26570;50.962;5.340;2023-06-10T22:48:12;21.80;99.90
40848;DHT22;26570;50.962;5.340;2023-06-10T22:52:13;21.80;99.90
40848;DHT22;26570;50.962;5.340;2023-06-10T22:55:33;21.70;99.90
40848;DHT22;26570;50.962;5.340;2023-06-10T22:58:48;21.50;99.90
